sensor_id;sensor_type;location;lat;lon;timestamp;P1;durP1;ratioP1;P2;durP2;ratioP2
6566;SDS011;3317;43.994;22.878;2022-12-29T00:02:21;24.97;;;13.47;;
6566;SDS011;3317;43.994;22.878;2022-12-29T00:04:48;22.03;;;12.87;;
6566;SDS011;3317;43.994;22.878;2022-12-29T00:07:16;33.23;;;16.03;;
6566;SDS011;3317;43.994;22.878;2022-12-29T00:09:42;27.40;;;14.83;;
6566;SDS011;3317;43.994;22.878;2022-12-29T00:12:09;25.63;;;12.97;;
6566;SDS011;3317;43.994;22.878;2022-12-29T00:14:38;35.70;;;15.90;;
6566;SDS011;3317;43.994;22.878;2022-12-29T00:17:22;26.90;;;14.33;;
6566;SDS011;3317;43.994;22.878;2022-12-29T00:19:49;34.87;;;15.40;;
6566;SDS011;3317;43.994;22.878;2022-12-29T00:22:33;22.60;;;13.33;;
6566;SDS011;3317;43.994;22.878;2022-12-29T00:25:14;16.77;;;10.93;;
6566;SDS011;3317;43.994;22.878;2022-12-29T00:27:59;20.33;;;12.13;;
6566;SDS011;3317;43.994;22.878;2022-12-29T00:30:45;18.87;;;11.13;;
6566;SDS011;3317;43.994;22.878;2022-12-29T00:33:29;20.83;;;12.10;;
6566;SDS011;3317;43.994;22.878;2022-12-29T00:36:15;19.17;;;11.70;;
6566;SDS011;3317;43.994;22.878;2022-12-29T00:38:45;21.73;;;12.50;;
6566;SDS011;3317;43.994;22.878;2022-12-29T00:41:33;28.93;;;14.73;;
6566;SDS011;3317;43.994;22.878;2022-12-29T00:44:17;25.80;;;15.97;;
6566;SDS011;3317;43.994;22.878;2022-12-29T00:46:48;44.17;;;23.30;;
6566;SDS011;3317;43.994;22.878;2022-12-29T00:49:15;35.23;;;20.10;;
6566;SDS011;3317;43.994;22.878;2022-12-29T00:51:56;47.60;;;24.10;;
6566;SDS011;3317;43.994;22.878;2022-12-29T00:54:24;30.57;;;19.30;;
6566;SDS011;3317;43.994;22.878;2022-12-29T00:56:52;29.63;;;17.03;;
6566;SDS011;3317;43.994;22.878;2022-12-29T00:59:19;33.40;;;17.53;;
6566;SDS011;3317;43.994;22.878;2022-12-29T01:01:48;27.07;;;17.00;;
6566;SDS011;3317;43.994;22.878;2022-12-29T01:04:15;33.50;;;18.53;;
6566;SDS011;3317;43.994;22.878;2022-12-29T01:06:42;26.90;;;17.47;;
6566;SDS011;3317;43.994;22.878;2022-12-29T01:09:08;38.43;;;21.50;;
6566;SDS011;3317;43.994;22.878;2022-12-29T01:11:53;29.20;;;16.90;;
6566;SDS011;3317;43.994;22.878;2022-12-29T01:14:21;31.70;;;17.87;;
6566;SDS011;3317;43.994;22.878;2022-12-29T01:16:50;25.97;;;15.00;;
6566;SDS011;3317;43.994;22.878;2022-12-29T01:19:17;25.60;;;15.60;;
6566;SDS011;3317;43.994;22.878;2022-12-29T01:21:44;25.30;;;14.90;;
6566;SDS011;3317;43.994;22.878;2022-12-29T01:24:12;27.07;;;15.30;;
6566;SDS011;3317;43.994;22.878;2022-12-29T01:26:39;29.17;;;16.50;;
6566;SDS011;3317;43.994;22.878;2022-12-29T01:29:06;27.53;;;17.17;;
6566;SDS011;3317;43.994;22.878;2022-12-29T01:31:34;20.40;;;13.37;;
6566;SDS011;3317;43.994;22.878;2022-12-29T01:34:02;26.97;;;15.87;;
6566;SDS011;3317;43.994;22.878;2022-12-29T01:36:29;22.80;;;12.93;;
6566;SDS011;3317;43.994;22.878;2022-12-29T01:38:57;19.97;;;13.27;;
6566;SDS011;3317;43.994;22.878;2022-12-29T01:41:24;24.53;;;14.17;;
6566;SDS011;3317;43.994;22.878;2022-12-29T01:43:51;24.30;;;14.13;;
6566;SDS011;3317;43.994;22.878;2022-12-29T01:46:23;22.13;;;12.70;;
6566;SDS011;3317;43.994;22.878;2022-12-29T01:48:53;23.03;;;12.30;;
6566;SDS011;3317;43.994;22.878;2022-12-29T01:51:25;21.23;;;11.50;;
6566;SDS011;3317;43.994;22.878;2022-12-29T01:53:54;22.47;;;12.20;;
6566;SDS011;3317;43.994;22.878;2022-12-29T01:56:24;16.30;;;10.63;;
6566;SDS011;3317;43.994;22.878;2022-12-29T01:58:53;16.80;;;11.17;;
6566;SDS011;3317;43.994;22.878;2022-12-29T02:01:25;14.57;;;10.57;;
6566;SDS011;3317;43.994;22.878;2022-12-29T02:03:52;21.13;;;12.37;;
6566;SDS011;3317;43.994;22.878;2022-12-29T02:06:21;25.77;;;13.63;;
6566;SDS011;3317;43.994;22.878;2022-12-29T02:08:52;21.73;;;12.17;;
6566;SDS011;3317;43.994;22.878;2022-12-29T02:11:21;22.07;;;11.70;;
6566;SDS011;3317;43.994;22.878;2022-12-29T02:13:51;22.57;;;11.77;;
6566;SDS011;3317;43.994;22.878;2022-12-29T02:16:25;24.10;;;13.40;;
6566;SDS011;3317;43.994;22.878;2022-12-29T02:19:05;27.50;;;14.23;;
6566;SDS011;3317;43.994;22.878;2022-12-29T02:21:56;19.17;;;11.20;;
6566;SDS011;3317;43.994;22.878;2022-12-29T02:24:54;18.33;;;12.33;;
6566;SDS011;3317;43.994;22.878;2022-12-29T02:27:43;16.00;;;10.67;;
6566;SDS011;3317;43.994;22.878;2022-12-29T02:30:42;14.50;;;9.20;;
6566;SDS011;3317;43.994;22.878;2022-12-29T02:33:19;14.17;;;9.27;;
6566;SDS011;3317;43.994;22.878;2022-12-29T02:35:56;15.37;;;9.73;;
6566;SDS011;3317;43.994;22.878;2022-12-29T02:38:37;14.33;;;10.33;;
6566;SDS011;3317;43.994;22.878;2022-12-29T02:41:16;13.90;;;7.93;;
6566;SDS011;3317;43.994;22.878;2022-12-29T02:43:49;17.70;;;10.10;;
6566;SDS011;3317;43.994;22.878;2022-12-29T02:46:24;16.70;;;10.53;;
6566;SDS011;3317;43.994;22.878;2022-12-29T02:48:57;16.43;;;10.90;;
6566;SDS011;3317;43.994;22.878;2022-12-29T02:51:31;21.90;;;11.00;;
6566;SDS011;3317;43.994;22.878;2022-12-29T02:54:02;13.00;;;8.70;;
6566;SDS011;3317;43.994;22.878;2022-12-29T02:56:47;14.43;;;8.90;;
6566;SDS011;3317;43.994;22.878;2022-12-29T02:59:14;12.17;;;8.53;;
6566;SDS011;3317;43.994;22.878;2022-12-29T03:01:53;17.97;;;11.07;;
6566;SDS011;3317;43.994;22.878;2022-12-29T03:07:39;26.80;;;14.63;;
6566;SDS011;3317;43.994;22.878;2022-12-29T03:10:14;29.13;;;16.10;;
6566;SDS011;3317;43.994;22.878;2022-12-29T03:12:53;34.10;;;25.97;;
6566;SDS011;3317;43.994;22.878;2022-12-29T03:15:46;25.97;;;15.27;;
6566;SDS011;3317;43.994;22.878;2022-12-29T03:18:29;20.80;;;13.47;;
6566;SDS011;3317;43.994;22.878;2022-12-29T03:21:06;24.50;;;14.97;;
6566;SDS011;3317;43.994;22.878;2022-12-29T03:23:37;20.97;;;13.87;;
6566;SDS011;3317;43.994;22.878;2022-12-29T03:26:09;26.60;;;15.80;;
6566;SDS011;3317;43.994;22.878;2022-12-29T03:28:39;25.23;;;13.60;;
6566;SDS011;3317;43.994;22.878;2022-12-29T03:31:11;23.47;;;13.60;;
6566;SDS011;3317;43.994;22.878;2022-12-29T03:33:41;22.67;;;14.23;;
6566;SDS011;3317;43.994;22.878;2022-12-29T03:36:10;22.53;;;14.27;;
6566;SDS011;3317;43.994;22.878;2022-12-29T03:38:44;18.20;;;11.13;;
6566;SDS011;3317;43.994;22.878;2022-12-29T03:41:17;20.40;;;12.17;;
6566;SDS011;3317;43.994;22.878;2022-12-29T03:43:46;18.30;;;12.00;;
6566;SDS011;3317;43.994;22.878;2022-12-29T03:46:13;20.83;;;12.90;;
6566;SDS011;3317;43.994;22.878;2022-12-29T03:48:42;21.27;;;13.43;;
6566;SDS011;3317;43.994;22.878;2022-12-29T03:51:09;16.50;;;11.40;;
6566;SDS011;3317;43.994;22.878;2022-12-29T03:53:36;15.67;;;10.53;;
6566;SDS011;3317;43.994;22.878;2022-12-29T03:56:03;16.10;;;10.67;;
6566;SDS011;3317;43.994;22.878;2022-12-29T03:58:31;13.33;;;8.73;;
6566;SDS011;3317;43.994;22.878;2022-12-29T04:00:58;20.53;;;10.60;;
6566;SDS011;3317;43.994;22.878;2022-12-29T04:03:25;17.10;;;11.47;;
6566;SDS011;3317;43.994;22.878;2022-12-29T04:05:53;17.67;;;12.80;;
6566;SDS011;3317;43.994;22.878;2022-12-29T04:08:20;15.43;;;10.60;;
6566;SDS011;3317;43.994;22.878;2022-12-29T04:10:47;21.73;;;16.30;;
6566;SDS011;3317;43.994;22.878;2022-12-29T04:13:14;20.67;;;13.20;;
6566;SDS011;3317;43.994;22.878;2022-12-29T04:15:43;20.63;;;12.87;;
6566;SDS011;3317;43.994;22.878;2022-12-29T04:18:11;22.20;;;14.90;;
6566;SDS011;3317;43.994;22.878;2022-12-29T04:20:38;22.30;;;14.50;;
6566;SDS011;3317;43.994;22.878;2022-12-29T04:23:24;24.03;;;13.93;;
6566;SDS011;3317;43.994;22.878;2022-12-29T04:25:51;17.30;;;12.37;;
6566;SDS011;3317;43.994;22.878;2022-12-29T04:28:18;19.30;;;12.17;;
6566;SDS011;3317;43.994;22.878;2022-12-29T04:30:45;19.00;;;12.00;;
6566;SDS011;3317;43.994;22.878;2022-12-29T04:33:13;22.97;;;12.40;;
6566;SDS011;3317;43.994;22.878;2022-12-29T04:35:40;19.23;;;12.43;;
6566;SDS011;3317;43.994;22.878;2022-12-29T04:38:07;18.50;;;12.67;;
6566;SDS011;3317;43.994;22.878;2022-12-29T04:40:37;16.90;;;11.93;;
6566;SDS011;3317;43.994;22.878;2022-12-29T04:43:04;17.77;;;13.03;;
6566;SDS011;3317;43.994;22.878;2022-12-29T04:45:31;22.03;;;14.53;;
6566;SDS011;3317;43.994;22.878;2022-12-29T04:47:58;25.90;;;15.60;;
6566;SDS011;3317;43.994;22.878;2022-12-29T04:50:25;17.63;;;12.90;;
6566;SDS011;3317;43.994;22.878;2022-12-29T04:52:52;21.53;;;14.53;;
6566;SDS011;3317;43.994;22.878;2022-12-29T04:55:19;21.07;;;13.03;;
6566;SDS011;3317;43.994;22.878;2022-12-29T04:57:47;24.30;;;15.40;;
6566;SDS011;3317;43.994;22.878;2022-12-29T05:00:14;25.37;;;15.70;;
6566;SDS011;3317;43.994;22.878;2022-12-29T05:02:41;22.80;;;14.70;;
6566;SDS011;3317;43.994;22.878;2022-12-29T05:05:08;21.20;;;13.40;;
6566;SDS011;3317;43.994;22.878;2022-12-29T05:07:35;24.17;;;17.37;;
6566;SDS011;3317;43.994;22.878;2022-12-29T05:10:02;26.97;;;17.30;;
6566;SDS011;3317;43.994;22.878;2022-12-29T05:12:32;28.67;;;15.53;;
6566;SDS011;3317;43.994;22.878;2022-12-29T05:15:02;29.00;;;18.10;;
6566;SDS011;3317;43.994;22.878;2022-12-29T05:17:29;25.90;;;15.83;;
6566;SDS011;3317;43.994;22.878;2022-12-29T05:19:56;22.40;;;14.20;;
6566;SDS011;3317;43.994;22.878;2022-12-29T05:22:23;25.10;;;14.47;;
6566;SDS011;3317;43.994;22.878;2022-12-29T05:24:50;23.17;;;15.37;;
6566;SDS011;3317;43.994;22.878;2022-12-29T05:27:17;25.77;;;15.40;;
6566;SDS011;3317;43.994;22.878;2022-12-29T05:29:44;26.70;;;15.47;;
6566;SDS011;3317;43.994;22.878;2022-12-29T05:32:12;28.20;;;18.23;;
6566;SDS011;3317;43.994;22.878;2022-12-29T05:34:39;25.73;;;16.87;;
6566;SDS011;3317;43.994;22.878;2022-12-29T05:37:05;30.03;;;18.17;;
6566;SDS011;3317;43.994;22.878;2022-12-29T05:39:32;23.47;;;16.17;;
6566;SDS011;3317;43.994;22.878;2022-12-29T05:41:59;30.73;;;17.60;;
6566;SDS011;3317;43.994;22.878;2022-12-29T05:44:26;27.37;;;16.67;;
6566;SDS011;3317;43.994;22.878;2022-12-29T05:46:53;30.13;;;17.10;;
6566;SDS011;3317;43.994;22.878;2022-12-29T05:49:21;28.83;;;17.50;;
6566;SDS011;3317;43.994;22.878;2022-12-29T05:51:48;25.97;;;16.23;;
6566;SDS011;3317;43.994;22.878;2022-12-29T05:54:15;22.90;;;15.10;;
6566;SDS011;3317;43.994;22.878;2022-12-29T05:56:42;22.57;;;14.10;;
6566;SDS011;3317;43.994;22.878;2022-12-29T05:59:09;24.83;;;13.40;;
6566;SDS011;3317;43.994;22.878;2022-12-29T06:01:36;30.10;;;16.63;;
6566;SDS011;3317;43.994;22.878;2022-12-29T06:04:03;26.93;;;16.30;;
6566;SDS011;3317;43.994;22.878;2022-12-29T06:06:31;31.10;;;16.03;;
6566;SDS011;3317;43.994;22.878;2022-12-29T06:08:58;33.43;;;18.20;;
6566;SDS011;3317;43.994;22.878;2022-12-29T06:11:25;33.80;;;19.57;;
6566;SDS011;3317;43.994;22.878;2022-12-29T06:13:52;34.00;;;19.33;;
6566;SDS011;3317;43.994;22.878;2022-12-29T06:16:19;35.33;;;22.50;;
6566;SDS011;3317;43.994;22.878;2022-12-29T06:18:46;32.93;;;20.87;;
6566;SDS011;3317;43.994;22.878;2022-12-29T06:21:12;32.30;;;18.57;;
6566;SDS011;3317;43.994;22.878;2022-12-29T06:23:41;28.80;;;16.87;;
6566;SDS011;3317;43.994;22.878;2022-12-29T06:26:08;26.53;;;14.27;;
6566;SDS011;3317;43.994;22.878;2022-12-29T06:28:35;24.03;;;14.93;;
6566;SDS011;3317;43.994;22.878;2022-12-29T06:31:02;47.97;;;24.00;;
6566;SDS011;3317;43.994;22.878;2022-12-29T06:33:31;116.33;;;51.57;;
6566;SDS011;3317;43.994;22.878;2022-12-29T06:35:58;163.57;;;74.27;;
6566;SDS011;3317;43.994;22.878;2022-12-29T06:38:25;124.77;;;56.67;;
6566;SDS011;3317;43.994;22.878;2022-12-29T06:40:53;68.93;;;34.90;;
6566;SDS011;3317;43.994;22.878;2022-12-29T06:43:20;34.40;;;18.90;;
6566;SDS011;3317;43.994;22.878;2022-12-29T06:45:47;33.53;;;18.47;;
6566;SDS011;3317;43.994;22.878;2022-12-29T06:48:14;26.90;;;15.90;;
6566;SDS011;3317;43.994;22.878;2022-12-29T06:50:41;29.70;;;16.37;;
6566;SDS011;3317;43.994;22.878;2022-12-29T06:53:08;27.43;;;16.27;;
6566;SDS011;3317;43.994;22.878;2022-12-29T06:55:35;31.30;;;17.23;;
6566;SDS011;3317;43.994;22.878;2022-12-29T06:58:04;26.53;;;16.60;;
6566;SDS011;3317;43.994;22.878;2022-12-29T07:00:31;31.77;;;16.00;;
6566;SDS011;3317;43.994;22.878;2022-12-29T07:02:58;20.37;;;12.43;;
6566;SDS011;3317;43.994;22.878;2022-12-29T07:05:25;27.63;;;15.43;;
6566;SDS011;3317;43.994;22.878;2022-12-29T07:07:53;27.90;;;15.57;;
6566;SDS011;3317;43.994;22.878;2022-12-29T07:10:20;41.73;;;20.60;;
6566;SDS011;3317;43.994;22.878;2022-12-29T07:12:47;44.03;;;21.00;;
6566;SDS011;3317;43.994;22.878;2022-12-29T07:15:16;54.63;;;24.27;;
6566;SDS011;3317;43.994;22.878;2022-12-29T07:17:43;46.10;;;22.80;;
6566;SDS011;3317;43.994;22.878;2022-12-29T07:20:09;42.30;;;22.80;;
6566;SDS011;3317;43.994;22.878;2022-12-29T07:22:37;41.73;;;23.10;;
6566;SDS011;3317;43.994;22.878;2022-12-29T07:25:04;48.77;;;25.40;;
6566;SDS011;3317;43.994;22.878;2022-12-29T07:27:31;35.00;;;17.97;;
6566;SDS011;3317;43.994;22.878;2022-12-29T07:29:58;38.83;;;19.70;;
6566;SDS011;3317;43.994;22.878;2022-12-29T07:32:26;41.33;;;22.27;;
6566;SDS011;3317;43.994;22.878;2022-12-29T07:34:53;47.07;;;25.97;;
6566;SDS011;3317;43.994;22.878;2022-12-29T07:37:20;52.03;;;26.93;;
6566;SDS011;3317;43.994;22.878;2022-12-29T07:39:47;43.40;;;23.80;;
6566;SDS011;3317;43.994;22.878;2022-12-29T07:42:14;45.03;;;24.20;;
6566;SDS011;3317;43.994;22.878;2022-12-29T07:44:40;55.30;;;28.67;;
6566;SDS011;3317;43.994;22.878;2022-12-29T07:47:07;59.00;;;30.10;;
6566;SDS011;3317;43.994;22.878;2022-12-29T07:49:36;50.30;;;26.97;;
6566;SDS011;3317;43.994;22.878;2022-12-29T07:52:03;59.70;;;29.53;;
6566;SDS011;3317;43.994;22.878;2022-12-29T07:54:30;49.40;;;27.90;;
6566;SDS011;3317;43.994;22.878;2022-12-29T07:56:57;49.73;;;24.80;;
6566;SDS011;3317;43.994;22.878;2022-12-29T07:59:25;48.37;;;28.80;;
6566;SDS011;3317;43.994;22.878;2022-12-29T08:01:52;51.83;;;28.77;;
6566;SDS011;3317;43.994;22.878;2022-12-29T08:04:19;38.00;;;23.40;;
6566;SDS011;3317;43.994;22.878;2022-12-29T08:06:47;49.50;;;28.40;;
6566;SDS011;3317;43.994;22.878;2022-12-29T08:09:14;41.80;;;21.80;;
6566;SDS011;3317;43.994;22.878;2022-12-29T08:11:41;34.90;;;22.30;;
6566;SDS011;3317;43.994;22.878;2022-12-29T08:14:09;36.77;;;23.50;;
6566;SDS011;3317;43.994;22.878;2022-12-29T08:16:36;39.20;;;22.40;;
6566;SDS011;3317;43.994;22.878;2022-12-29T08:19:02;32.20;;;19.63;;
6566;SDS011;3317;43.994;22.878;2022-12-29T08:21:30;33.07;;;18.90;;
6566;SDS011;3317;43.994;22.878;2022-12-29T08:23:59;29.83;;;17.90;;
6566;SDS011;3317;43.994;22.878;2022-12-29T08:26:25;26.77;;;16.40;;
6566;SDS011;3317;43.994;22.878;2022-12-29T08:28:52;30.80;;;17.57;;
6566;SDS011;3317;43.994;22.878;2022-12-29T08:31:20;27.27;;;17.30;;
6566;SDS011;3317;43.994;22.878;2022-12-29T08:33:48;21.93;;;13.87;;
6566;SDS011;3317;43.994;22.878;2022-12-29T08:36:15;25.30;;;15.07;;
6566;SDS011;3317;43.994;22.878;2022-12-29T08:38:42;27.33;;;15.40;;
6566;SDS011;3317;43.994;22.878;2022-12-29T08:41:10;25.97;;;16.23;;
6566;SDS011;3317;43.994;22.878;2022-12-29T08:43:37;34.10;;;17.60;;
6566;SDS011;3317;43.994;22.878;2022-12-29T08:46:04;26.03;;;15.00;;
6566;SDS011;3317;43.994;22.878;2022-12-29T08:48:31;31.67;;;16.53;;
6566;SDS011;3317;43.994;22.878;2022-12-29T08:50:57;33.30;;;15.80;;
6566;SDS011;3317;43.994;22.878;2022-12-29T08:53:25;30.90;;;18.83;;
6566;SDS011;3317;43.994;22.878;2022-12-29T08:55:55;29.37;;;16.97;;
6566;SDS011;3317;43.994;22.878;2022-12-29T08:58:24;24.50;;;15.57;;
6566;SDS011;3317;43.994;22.878;2022-12-29T09:00:52;22.50;;;13.70;;
6566;SDS011;3317;43.994;22.878;2022-12-29T09:03:19;26.70;;;16.83;;
6566;SDS011;3317;43.994;22.878;2022-12-29T09:05:47;36.97;;;20.30;;
6566;SDS011;3317;43.994;22.878;2022-12-29T09:08:14;30.67;;;18.47;;
6566;SDS011;3317;43.994;22.878;2022-12-29T09:10:41;29.53;;;17.30;;
6566;SDS011;3317;43.994;22.878;2022-12-29T09:13:08;28.00;;;16.93;;
6566;SDS011;3317;43.994;22.878;2022-12-29T09:15:37;30.27;;;18.20;;
6566;SDS011;3317;43.994;22.878;2022-12-29T09:18:05;34.63;;;19.33;;
6566;SDS011;3317;43.994;22.878;2022-12-29T09:20:32;34.33;;;20.90;;
6566;SDS011;3317;43.994;22.878;2022-12-29T09:23:00;29.87;;;19.63;;
6566;SDS011;3317;43.994;22.878;2022-12-29T09:25:27;35.40;;;20.50;;
6566;SDS011;3317;43.994;22.878;2022-12-29T09:27:54;36.47;;;20.03;;
6566;SDS011;3317;43.994;22.878;2022-12-29T09:30:22;31.93;;;17.70;;
6566;SDS011;3317;43.994;22.878;2022-12-29T09:32:51;36.50;;;21.33;;
6566;SDS011;3317;43.994;22.878;2022-12-29T09:35:18;36.37;;;19.40;;
6566;SDS011;3317;43.994;22.878;2022-12-29T09:37:45;39.00;;;23.27;;
6566;SDS011;3317;43.994;22.878;2022-12-29T09:40:17;41.80;;;23.80;;
6566;SDS011;3317;43.994;22.878;2022-12-29T09:42:55;36.30;;;21.40;;
6566;SDS011;3317;43.994;22.878;2022-12-29T09:45:32;41.80;;;22.57;;
6566;SDS011;3317;43.994;22.878;2022-12-29T09:48:10;35.23;;;20.13;;
6566;SDS011;3317;43.994;22.878;2022-12-29T09:50:41;32.90;;;20.13;;
6566;SDS011;3317;43.994;22.878;2022-12-29T09:53:14;35.97;;;20.90;;
6566;SDS011;3317;43.994;22.878;2022-12-29T09:55:47;36.03;;;22.40;;
6566;SDS011;3317;43.994;22.878;2022-12-29T09:58:16;35.80;;;21.27;;
6566;SDS011;3317;43.994;22.878;2022-12-29T10:00:52;40.67;;;23.87;;
6566;SDS011;3317;43.994;22.878;2022-12-29T10:03:27;36.93;;;22.10;;
6566;SDS011;3317;43.994;22.878;2022-12-29T10:06:06;35.53;;;21.10;;
6566;SDS011;3317;43.994;22.878;2022-12-29T10:08:40;41.27;;;23.50;;
6566;SDS011;3317;43.994;22.878;2022-12-29T10:11:13;35.93;;;23.37;;
6566;SDS011;3317;43.994;22.878;2022-12-29T10:13:52;35.57;;;21.97;;
6566;SDS011;3317;43.994;22.878;2022-12-29T10:16:35;42.43;;;24.27;;
6566;SDS011;3317;43.994;22.878;2022-12-29T10:19:15;41.70;;;24.00;;
6566;SDS011;3317;43.994;22.878;2022-12-29T10:21:55;41.03;;;23.40;;
6566;SDS011;3317;43.994;22.878;2022-12-29T10:24:29;34.37;;;21.80;;
6566;SDS011;3317;43.994;22.878;2022-12-29T10:26:58;44.03;;;23.00;;
6566;SDS011;3317;43.994;22.878;2022-12-29T10:29:27;39.70;;;23.30;;
6566;SDS011;3317;43.994;22.878;2022-12-29T10:32:00;43.23;;;23.43;;
6566;SDS011;3317;43.994;22.878;2022-12-29T10:34:33;38.70;;;23.47;;
6566;SDS011;3317;43.994;22.878;2022-12-29T10:37:04;43.23;;;26.73;;
6566;SDS011;3317;43.994;22.878;2022-12-29T10:39:38;31.23;;;20.43;;
6566;SDS011;3317;43.994;22.878;2022-12-29T10:42:11;40.67;;;24.23;;
6566;SDS011;3317;43.994;22.878;2022-12-29T10:44:45;41.03;;;24.03;;
6566;SDS011;3317;43.994;22.878;2022-12-29T10:47:13;34.57;;;21.70;;
6566;SDS011;3317;43.994;22.878;2022-12-29T10:49:45;38.70;;;24.20;;
6566;SDS011;3317;43.994;22.878;2022-12-29T10:52:14;39.80;;;27.57;;
6566;SDS011;3317;43.994;22.878;2022-12-29T10:54:45;24.80;;;15.87;;
6566;SDS011;3317;43.994;22.878;2022-12-29T10:57:17;53.77;;;30.40;;
6566;SDS011;3317;43.994;22.878;2022-12-29T10:59:52;40.70;;;24.57;;
6566;SDS011;3317;43.994;22.878;2022-12-29T11:05:25;34.23;;;20.00;;
6566;SDS011;3317;43.994;22.878;2022-12-29T11:07:58;27.73;;;18.93;;
6566;SDS011;3317;43.994;22.878;2022-12-29T11:10:34;29.30;;;19.90;;
6566;SDS011;3317;43.994;22.878;2022-12-29T11:13:04;33.87;;;20.27;;
6566;SDS011;3317;43.994;22.878;2022-12-29T11:15:38;30.50;;;19.50;;
6566;SDS011;3317;43.994;22.878;2022-12-29T11:18:16;35.23;;;21.03;;
6566;SDS011;3317;43.994;22.878;2022-12-29T11:20:47;33.87;;;20.40;;
6566;SDS011;3317;43.994;22.878;2022-12-29T11:23:22;33.50;;;19.63;;
6566;SDS011;3317;43.994;22.878;2022-12-29T11:28:41;29.47;;;17.60;;
6566;SDS011;3317;43.994;22.878;2022-12-29T11:31:10;25.30;;;16.57;;
6566;SDS011;3317;43.994;22.878;2022-12-29T11:33:41;29.50;;;17.97;;
6566;SDS011;3317;43.994;22.878;2022-12-29T11:36:10;31.00;;;17.67;;
6566;SDS011;3317;43.994;22.878;2022-12-29T11:38:40;30.27;;;17.13;;
6566;SDS011;3317;43.994;22.878;2022-12-29T11:41:12;27.60;;;17.37;;
6566;SDS011;3317;43.994;22.878;2022-12-29T11:43:45;31.33;;;19.90;;
6566;SDS011;3317;43.994;22.878;2022-12-29T11:46:13;31.60;;;20.20;;
6566;SDS011;3317;43.994;22.878;2022-12-29T11:48:43;35.40;;;21.03;;
6566;SDS011;3317;43.994;22.878;2022-12-29T11:51:14;31.30;;;20.07;;
6566;SDS011;3317;43.994;22.878;2022-12-29T11:53:49;30.27;;;19.50;;
6566;SDS011;3317;43.994;22.878;2022-12-29T11:56:20;35.57;;;20.00;;
6566;SDS011;3317;43.994;22.878;2022-12-29T11:58:57;38.97;;;23.60;;
6566;SDS011;3317;43.994;22.878;2022-12-29T12:01:44;42.60;;;25.70;;
6566;SDS011;3317;43.994;22.878;2022-12-29T12:04:13;41.67;;;26.97;;
6566;SDS011;3317;43.994;22.878;2022-12-29T12:06:45;52.73;;;31.40;;
6566;SDS011;3317;43.994;22.878;2022-12-29T12:09:22;53.63;;;31.17;;
6566;SDS011;3317;43.994;22.878;2022-12-29T12:11:53;50.23;;;31.43;;
6566;SDS011;3317;43.994;22.878;2022-12-29T12:14:23;49.17;;;28.00;;
6566;SDS011;3317;43.994;22.878;2022-12-29T12:16:58;41.60;;;27.70;;
6566;SDS011;3317;43.994;22.878;2022-12-29T12:19:31;42.57;;;25.40;;
6566;SDS011;3317;43.994;22.878;2022-12-29T12:22:07;43.30;;;26.67;;
6566;SDS011;3317;43.994;22.878;2022-12-29T12:24:40;41.40;;;24.50;;
6566;SDS011;3317;43.994;22.878;2022-12-29T12:27:14;41.70;;;24.93;;
6566;SDS011;3317;43.994;22.878;2022-12-29T12:29:50;46.27;;;27.90;;
6566;SDS011;3317;43.994;22.878;2022-12-29T12:32:24;38.90;;;25.77;;
6566;SDS011;3317;43.994;22.878;2022-12-29T12:34:57;42.63;;;25.40;;
6566;SDS011;3317;43.994;22.878;2022-12-29T12:37:41;40.77;;;24.03;;
6566;SDS011;3317;43.994;22.878;2022-12-29T12:40:32;40.00;;;24.13;;
6566;SDS011;3317;43.994;22.878;2022-12-29T12:43:08;35.80;;;21.70;;
6566;SDS011;3317;43.994;22.878;2022-12-29T12:45:47;34.17;;;21.90;;
6566;SDS011;3317;43.994;22.878;2022-12-29T12:51:14;31.83;;;19.90;;
6566;SDS011;3317;43.994;22.878;2022-12-29T12:53:58;33.30;;;20.80;;
6566;SDS011;3317;43.994;22.878;2022-12-29T12:56:37;33.70;;;20.07;;
6566;SDS011;3317;43.994;22.878;2022-12-29T12:59:17;31.57;;;19.47;;
6566;SDS011;3317;43.994;22.878;2022-12-29T13:01:59;31.77;;;20.10;;
6566;SDS011;3317;43.994;22.878;2022-12-29T13:04:41;34.77;;;20.83;;
6566;SDS011;3317;43.994;22.878;2022-12-29T13:07:32;34.83;;;19.10;;
6566;SDS011;3317;43.994;22.878;2022-12-29T13:10:19;30.90;;;18.00;;
6566;SDS011;3317;43.994;22.878;2022-12-29T13:13:06;32.83;;;18.80;;
6566;SDS011;3317;43.994;22.878;2022-12-29T13:15:49;41.43;;;20.37;;
6566;SDS011;3317;43.994;22.878;2022-12-29T13:18:25;43.73;;;22.10;;
6566;SDS011;3317;43.994;22.878;2022-12-29T13:20:59;38.90;;;20.50;;
6566;SDS011;3317;43.994;22.878;2022-12-29T13:23:32;33.70;;;19.83;;
6566;SDS011;3317;43.994;22.878;2022-12-29T13:26:11;32.07;;;18.83;;
6566;SDS011;3317;43.994;22.878;2022-12-29T13:28:46;33.00;;;18.37;;
6566;SDS011;3317;43.994;22.878;2022-12-29T13:31:20;40.60;;;19.70;;
6566;SDS011;3317;43.994;22.878;2022-12-29T13:33:57;34.77;;;19.70;;
6566;SDS011;3317;43.994;22.878;2022-12-29T13:36:33;35.00;;;20.60;;
6566;SDS011;3317;43.994;22.878;2022-12-29T13:39:05;33.50;;;18.67;;
6566;SDS011;3317;43.994;22.878;2022-12-29T13:41:39;35.80;;;18.80;;
6566;SDS011;3317;43.994;22.878;2022-12-29T13:44:10;27.77;;;18.80;;
6566;SDS011;3317;43.994;22.878;2022-12-29T13:46:43;30.90;;;18.80;;
6566;SDS011;3317;43.994;22.878;2022-12-29T13:49:14;31.90;;;19.00;;
6566;SDS011;3317;43.994;22.878;2022-12-29T13:51:46;38.60;;;20.27;;
6566;SDS011;3317;43.994;22.878;2022-12-29T13:54:18;31.07;;;19.53;;
6566;SDS011;3317;43.994;22.878;2022-12-29T13:56:57;30.50;;;20.90;;
6566;SDS011;3317;43.994;22.878;2022-12-29T13:59:35;31.77;;;20.00;;
6566;SDS011;3317;43.994;22.878;2022-12-29T14:02:10;32.63;;;19.13;;
6566;SDS011;3317;43.994;22.878;2022-12-29T14:04:55;42.60;;;23.40;;
6566;SDS011;3317;43.994;22.878;2022-12-29T14:07:24;47.70;;;26.40;;
6566;SDS011;3317;43.994;22.878;2022-12-29T14:09:52;36.47;;;21.97;;
6566;SDS011;3317;43.994;22.878;2022-12-29T14:12:32;40.77;;;21.07;;
6566;SDS011;3317;43.994;22.878;2022-12-29T14:15:03;45.27;;;24.43;;
6566;SDS011;3317;43.994;22.878;2022-12-29T14:17:33;55.47;;;28.10;;
6566;SDS011;3317;43.994;22.878;2022-12-29T14:20:00;50.83;;;25.20;;
6566;SDS011;3317;43.994;22.878;2022-12-29T14:22:29;49.60;;;25.67;;
6566;SDS011;3317;43.994;22.878;2022-12-29T14:24:56;57.13;;;27.67;;
6566;SDS011;3317;43.994;22.878;2022-12-29T14:33:18;35.77;;;21.70;;
6566;SDS011;3317;43.994;22.878;2022-12-29T14:35:46;38.07;;;19.87;;
6566;SDS011;3317;43.994;22.878;2022-12-29T14:38:24;33.30;;;20.30;;
6566;SDS011;3317;43.994;22.878;2022-12-29T14:40:52;28.97;;;18.87;;
6566;SDS011;3317;43.994;22.878;2022-12-29T14:43:52;32.70;;;18.43;;
6566;SDS011;3317;43.994;22.878;2022-12-29T14:46:21;26.10;;;15.60;;
6566;SDS011;3317;43.994;22.878;2022-12-29T14:48:52;25.87;;;14.60;;
6566;SDS011;3317;43.994;22.878;2022-12-29T14:51:28;24.10;;;15.33;;
6566;SDS011;3317;43.994;22.878;2022-12-29T14:53:57;28.00;;;17.63;;
6566;SDS011;3317;43.994;22.878;2022-12-29T14:56:25;34.00;;;21.23;;
6566;SDS011;3317;43.994;22.878;2022-12-29T14:58:58;45.20;;;25.43;;
6566;SDS011;3317;43.994;22.878;2022-12-29T15:01:38;57.93;;;31.57;;
6566;SDS011;3317;43.994;22.878;2022-12-29T15:04:18;62.40;;;31.40;;
6566;SDS011;3317;43.994;22.878;2022-12-29T15:06:48;58.87;;;32.20;;
6566;SDS011;3317;43.994;22.878;2022-12-29T15:09:20;58.53;;;33.47;;
6566;SDS011;3317;43.994;22.878;2022-12-29T15:11:52;79.33;;;37.43;;
6566;SDS011;3317;43.994;22.878;2022-12-29T15:14:34;64.67;;;30.87;;
6566;SDS011;3317;43.994;22.878;2022-12-29T15:17:09;53.33;;;26.90;;
6566;SDS011;3317;43.994;22.878;2022-12-29T15:19:37;48.27;;;25.20;;